Time;durP1;ratioP1;P1;durP2;ratioP2;P2;SDS_P1;SDS_P2;PMS_P1;PMS_P2;Temp;Humidity;BMP_temperature;BMP_pressure;BME280_temperature;BME280_humidity;BME280_pressure;Samples;Min_cycle;Max_cycle;Signal;HPM_P1;HPM_P2
2022/07/20 00:02:21;;;;;;;5.13;3.67;;;24.20;99.90;;;;;;5076281;28;20117;-81
2022/07/20 00:04:51;;;;;;;7.63;3.70;;;24.10;99.90;;;;;;5093371;28;20036;-81
2022/07/20 00:07:17;;;;;;;7.95;4.05;;;23.90;99.90;;;;;;5076235;28;20040;-81
2022/07/20 00:12:28;;;;;;;5.82;3.20;;;24.00;99.90;;;;;;5093367;28;20081;-88
2022/07/20 00:14:54;;;;;;;5.40;3.33;;;24.00;99.90;;;;;;5076385;28;20048;-87
2022/07/20 00:17:20;;;;;;;9.07;3.50;;;;;;;;;;5093295;28;20135;-88
2022/07/20 00:19:47;;;;;;;5.63;2.92;;;;;;;;;;5093002;28;20047;-88
2022/07/20 00:22:13;;;;;;;7.28;3.67;;;;;;;;;;5093243;28;20040;-90
2022/07/20 00:24:39;;;;;;;4.53;2.80;;;;;;;;;;5092924;28;20044;-90
2022/07/20 00:27:05;;;;;;;4.95;3.88;;;;;;;;;;5092851;28;20040;-89
2022/07/20 00:29:31;;;;;;;5.88;3.28;;;23.60;99.90;;;;;;5076004;28;20055;-87
2022/07/20 00:31:56;;;;;;;4.40;3.25;;;23.60;99.90;;;;;;5093213;28;20047;-87
2022/07/20 00:34:22;;;;;;;5.20;3.50;;;23.60;99.90;;;;;;5075978;28;20504;-90
2022/07/20 00:36:48;;;;;;;3.42;3.13;;;;;;;;;;5092890;28;20055;-89
2022/07/20 00:39:14;;;;;;;8.70;3.08;;;;;;;;;;5075354;28;20056;-88
2022/07/20 00:41:40;;;;;;;9.63;3.40;;;23.50;99.90;;;;;;5075803;28;20048;-86
2022/07/20 00:44:07;;;;;;;4.30;3.15;;;23.60;99.90;;;;;;5092836;28;20066;-85
2022/07/20 00:46:39;;;;;;;7.05;4.03;;;23.50;99.90;;;;;;5075589;28;20040;-89
2022/07/20 00:49:06;;;;;;;6.68;3.05;;;23.40;99.90;;;;;;5075717;28;20048;-89
2022/07/20 00:51:32;;;;;;;6.00;3.55;;;23.30;99.90;;;;;;5092582;28;20082;-81
2022/07/20 00:53:59;;;;;;;6.60;3.65;;;;;;;;;;5092205;28;20047;-82
2022/07/20 00:56:25;;;;;;;8.13;3.30;;;;;;;;;;5075343;28;20040;-83
2022/07/20 00:58:51;;;;;;;7.53;3.70;;;;;;;;;;5075242;28;20052;-81
2022/07/20 01:01:17;;;;;;;4.60;3.10;;;;;;;;;;5092301;28;20059;-81
2022/07/20 01:03:44;;;;;;;4.13;3.40;;;23.20;99.90;;;;;;5075518;28;20044;-81
2022/07/20 01:06:11;;;;;;;9.35;3.35;;;23.20;99.90;;;;;;5075173;28;20085;-81
2022/07/20 01:08:37;;;;;;;6.45;2.88;;;;;;;;;;5075422;28;20097;-81
2022/07/20 01:11:03;;;;;;;5.53;3.28;;;22.90;99.90;;;;;;5091889;28;20040;-82
2022/07/20 01:13:29;;;;;;;9.75;3.50;;;23.20;99.90;;;;;;5092037;28;20040;-81
2022/07/20 01:15:55;;;;;;;5.20;3.00;;;22.70;99.90;;;;;;5091870;28;20036;-82
2022/07/20 01:18:21;;;;;;;7.05;4.10;;;;;;;;;;5092021;28;20525;-81
2022/07/20 01:20:48;;;;;;;5.35;3.88;;;22.90;99.90;;;;;;5075117;28;20039;-81
2022/07/20 01:23:18;;;;;;;7.88;3.97;;;23.10;99.90;;;;;;5074004;28;20044;-82
2022/07/20 01:25:44;;;;;;;3.92;3.58;;;;;;;;;;5074896;28;20048;-81
2022/07/20 01:28:12;;;;;;;4.03;3.58;;;22.70;99.90;;;;;;5091603;28;20055;-81
2022/07/20 01:30:39;;;;;;;7.43;3.63;;;;;;;;;;5074678;28;20048;-81
2022/07/20 01:33:05;;;;;;;7.07;3.58;;;;;;;;;;5074683;28;20417;-84
2022/07/20 01:35:31;;;;;;;6.50;3.17;;;;;;;;;;5091850;28;20203;-84
2022/07/20 01:37:57;;;;;;;7.07;3.50;;;22.80;99.90;;;;;;5074352;28;20489;-85
2022/07/20 01:40:23;;;;;;;7.45;3.95;;;22.60;99.90;;;;;;5091439;28;20044;-87
2022/07/20 01:42:49;;;;;;;6.68;3.25;;;;;;;;;;5074980;28;20059;-83
2022/07/20 01:45:15;;;;;;;4.70;3.30;;;;;;;;;;5091680;28;20484;-85
2022/07/20 01:47:41;;;;;;;3.55;3.25;;;22.50;99.90;;;;;;5074681;28;20047;-85
2022/07/20 01:50:07;;;;;;;5.80;3.60;;;22.70;99.90;;;;;;5074659;28;20086;-87
2022/07/20 01:52:33;;;;;;;4.05;3.10;;;;;;;;;;5074834;28;20051;-87
2022/07/20 01:54:59;;;;;;;5.43;3.92;;;;;;;;;;5091576;28;20117;-85
2022/07/20 01:57:25;;;;;;;7.38;3.40;;;;;;;;;;5090971;28;20047;-86
2022/07/20 01:59:51;;;;;;;9.18;3.38;;;22.50;99.90;;;;;;5074048;28;20081;-89
2022/07/20 02:02:17;;;;;;;5.15;3.45;;;22.50;99.90;;;;;;5074274;28;20287;-84
2022/07/20 02:04:43;;;;;;;10.02;4.30;;;;;;;;;;5074350;28;20112;-86
2022/07/20 02:07:09;;;;;;;8.75;3.88;;;;;;;;;;5091138;28;20047;-87
2022/07/20 02:09:35;;;;;;;7.15;3.03;;;;;;;;;;5074181;28;20040;-86
2022/07/20 02:12:01;;;;;;;8.25;3.50;;;;;;;;;;5090837;28;20040;-83
2022/07/20 02:14:27;;;;;;;6.03;3.60;;;;;;;;;;5090946;28;20044;-84
2022/07/20 02:16:53;;;;;;;7.75;3.50;;;;;;;;;;5073902;28;20117;-84
2022/07/20 02:19:19;;;;;;;7.43;3.90;;;;;;;;;;5090785;28;20139;-84
2022/07/20 02:21:45;;;;;;;5.78;3.92;;;;;;;;;;5091469;28;20222;-84
2022/07/20 02:24:11;;;;;;;6.53;3.90;;;;;;;;;;5074502;28;20048;-86
2022/07/20 02:26:37;;;;;;;8.77;3.53;;;;;;;;;;5073765;28;20036;-82
2022/07/20 02:29:04;;;;;;;6.05;3.42;;;;;;;;;;5090683;28;20047;-81
2022/07/20 02:31:30;;;;;;;5.90;3.50;;;;;;;;;;5073934;28;20047;-81
2022/07/20 02:33:55;;;;;;;8.10;3.70;;;22.00;99.90;;;;;;5090763;28;20044;-81
2022/07/20 02:36:22;;;;;;;5.30;4.15;;;;;;;;;;5073814;28;20381;-81
2022/07/20 02:38:48;;;;;;;5.80;3.70;;;;;;;;;;5073360;28;20052;-81
2022/07/20 02:41:14;;;;;;;6.57;3.40;;;;;;;;;;5091027;28;20048;-81
2022/07/20 02:43:40;;;;;;;5.03;3.67;;;;;;;;;;5090250;28;20054;-81
2022/07/20 02:46:06;;;;;;;6.68;3.53;;;;;;;;;;5090653;28;20798;-81
2022/07/20 02:48:32;;;;;;;5.85;3.88;;;;;;;;;;5090843;28;20079;-81
2022/07/20 02:50:58;;;;;;;8.07;4.28;;;;;;;;;;5073578;28;20488;-81
2022/07/20 02:53:24;;;;;;;5.97;3.35;;;;;;;;;;5073527;28;20097;-81
2022/07/20 02:55:50;;;;;;;6.15;4.10;;;;;;;;;;5073755;28;20097;-81
2022/07/20 02:58:16;;;;;;;8.50;4.03;;;;;;;;;;5090216;28;20036;-81
2022/07/20 03:00:43;;;;;;;4.32;3.10;;;;;;;;;;5073564;28;20046;-81
2022/07/20 03:03:09;;;;;;;6.90;3.47;;;;;;;;;;5090207;28;20043;-81
2022/07/20 03:05:35;;;;;;;5.88;3.85;;;;;;;;;;5073434;28;20044;-81
2022/07/20 03:08:01;;;;;;;3.72;3.40;;;;;;;;;;5090061;28;20131;-81
2022/07/20 03:10:27;;;;;;;6.70;3.70;;;;;;;;;;5073266;28;20032;-81
2022/07/20 03:12:53;;;;;;;5.57;3.78;;;;;;;;;;5073366;28;20563;-81
2022/07/20 03:15:19;;;;;;;4.88;3.33;;;;;;;;;;5090057;28;20405;-81
2022/07/20 03:17:48;;;;;;;10.63;4.20;;;21.50;99.90;;;;;;5090089;28;20052;-81
2022/07/20 03:20:22;;;;;;;7.07;3.58;;;21.50;99.90;;;;;;5073545;28;20052;-81
2022/07/20 03:22:49;;;;;;;6.75;4.40;;;21.60;99.90;;;;;;5073231;28;20051;-81
2022/07/20 03:25:14;;;;;;;7.95;4.00;;;21.50;99.90;;;;;;5090153;28;20052;-81
2022/07/20 03:27:40;;;;;;;4.60;3.45;;;21.60;99.90;;;;;;5089792;28;20043;-82
2022/07/20 03:30:07;;;;;;;4.82;3.80;;;21.50;99.90;;;;;;5072989;28;20085;-81
2022/07/20 03:32:33;;;;;;;9.20;4.05;;;21.40;99.90;;;;;;5091101;28;20036;-81
2022/07/20 03:34:59;;;;;;;3.88;3.45;;;;;;;;;;5091332;28;20044;-84
2022/07/20 03:37:25;;;;;;;7.13;3.72;;;;;;;;;;5091196;28;20419;-84
2022/07/20 03:39:51;;;;;;;7.15;3.67;;;;;;;;;;5072953;28;20047;-82
2022/07/20 03:42:18;;;;;;;5.50;3.60;;;;;;;;;;5073064;28;20485;-83
2022/07/20 03:44:44;;;;;;;7.35;4.63;;;;;;;;;;5089702;28;20086;-87
2022/07/20 03:47:10;;;;;;;5.28;3.75;;;21.20;99.90;;;;;;5093030;28;20517;-86
2022/07/20 03:49:35;;;;;;;6.63;4.22;;;21.10;99.90;;;;;;5077212;28;20048;-87
2022/07/20 03:52:02;;;;;;;5.25;3.63;;;;;;;;;;5094896;28;20457;-83
2022/07/20 03:54:28;;;;;;;5.72;3.50;;;;;;;;;;5094834;28;20050;-87
2022/07/20 03:56:54;;;;;;;11.85;5.13;;;;;;;;;;5093356;28;20047;-85
2022/07/20 03:59:20;;;;;;;5.55;3.80;;;;;;;;;;5094554;28;20093;-84
2022/07/20 04:01:46;;;;;;;4.88;4.15;;;;;;;;;;5093112;28;20043;-86
2022/07/20 04:04:12;;;;;;;12.00;3.80;;;;;;;;;;5093857;28;20389;-87
2022/07/20 04:06:38;;;;;;;7.32;3.30;;;;;;;;;;5093067;28;20044;-84
2022/07/20 04:09:04;;;;;;;4.53;3.92;;;;;;;;;;5093442;28;20545;-87
2022/07/20 04:11:30;;;;;;;7.35;3.63;;;;;;;;;;5076338;28;20488;-88
2022/07/20 04:13:56;;;;;;;10.43;4.30;;;;;;;;;;5076390;28;20048;-85
2022/07/20 04:16:22;;;;;;;6.40;3.60;;;;;;;;;;5092900;28;20040;-87
2022/07/20 04:18:48;;;;;;;7.28;3.58;;;;;;;;;;5092798;28;20495;-81
2022/07/20 04:21:14;;;;;;;4.90;3.67;;;;;;;;;;5076432;28;20040;-81
2022/07/20 04:23:40;;;;;;;8.45;3.67;;;;;;;;;;5076286;28;20044;-81
2022/07/20 04:26:07;;;;;;;8.95;3.83;;;;;;;;;;5075929;28;20044;-81
2022/07/20 04:28:33;;;;;;;5.63;4.10;;;;;;;;;;5075856;28;20040;-81
2022/07/20 04:30:59;;;;;;;4.40;3.65;;;;;;;;;;5092568;28;20105;-81
2022/07/20 04:33:25;;;;;;;4.47;3.72;;;;;;;;;;5092525;28;20048;-84
2022/07/20 04:35:51;;;;;;;5.43;3.50;;;;;;;;;;5092863;28;20055;-81
2022/07/20 04:38:17;;;;;;;4.05;3.60;;;21.20;99.90;;;;;;5092080;28;20131;-82
2022/07/20 04:40:44;;;;;;;4.50;3.83;;;21.20;99.90;;;;;;5075704;28;20048;-81
2022/07/20 04:43:10;;;;;;;8.05;4.15;;;21.20;99.90;;;;;;5075854;28;20050;-81
2022/07/20 04:45:36;;;;;;;5.05;4.10;;;21.30;99.90;;;;;;5092446;28;20044;-81
2022/07/20 04:48:03;;;;;;;5.32;4.20;;;;;;;;;;5075182;28;20048;-82
2022/07/20 04:50:29;;;;;;;8.00;3.90;;;;;;;;;;5075496;28;20040;-81
2022/07/20 04:52:55;;;;;;;7.07;3.50;;;;;;;;;;5075431;28;20044;-81
2022/07/20 04:55:21;;;;;;;5.43;3.88;;;;;;;;;;5075269;28;20088;-82
2022/07/20 04:57:47;;;;;;;7.55;3.85;;;;;;;;;;5092064;28;20496;-81
2022/07/20 05:00:13;;;;;;;5.80;4.15;;;;;;;;;;5075303;28;20052;-81
2022/07/20 05:02:39;;;;;;;5.95;4.35;;;;;;;;;;5091930;28;20040;-81
2022/07/20 05:05:06;;;;;;;5.35;4.22;;;21.40;99.90;;;;;;5075177;28;20044;-82
2022/07/20 05:07:32;;;;;;;4.60;4.00;;;;;;;;;;5074967;28;20051;-81
2022/07/20 05:09:58;;;;;;;6.55;3.88;;;;;;;;;;5091832;28;20129;-81
2022/07/20 05:12:24;;;;;;;7.28;4.63;;;;;;;;;;5091881;28;20090;-82
2022/07/20 05:14:50;;;;;;;5.97;3.72;;;;;;;;;;5075127;28;20043;-82
2022/07/20 05:17:16;;;;;;;6.07;4.10;;;;;;;;;;5075204;28;20062;-80
2022/07/20 05:19:42;;;;;;;6.65;4.18;;;;;;;;;;5085152;28;20068;-85
2022/07/20 05:22:08;;;;;;;18.05;4.07;;;;;;;;;;5079355;28;20918;-87
2022/07/20 05:24:34;;;;;;;4.40;3.97;;;;;;;;;;5060234;28;20461;-88
2022/07/20 05:27:00;;;;;;;10.45;4.07;;;;;;;;;;5082921;28;20051;-87
2022/07/20 05:29:26;;;;;;;5.82;3.70;;;;;;;;;;5078147;28;20036;-89
2022/07/20 05:31:52;;;;;;;9.35;4.40;;;;;;;;;;5066390;28;20036;-86
2022/07/20 05:34:18;;;;;;;4.90;3.90;;;;;;;;;;5056511;28;20049;-85
2022/07/20 05:36:44;;;;;;;6.28;3.70;;;;;;;;;;5076163;28;20046;-84
2022/07/20 05:39:11;;;;;;;6.10;4.13;;;;;;;;;;5077080;28;20056;-90
2022/07/20 05:41:37;;;;;;;11.35;4.47;;;;;;;;;;5058256;28;20043;-87
2022/07/20 05:44:03;;;;;;;7.93;4.22;;;;;;;;;;5079356;28;20454;-87
2022/07/20 05:46:29;;;;;;;11.75;4.10;;;;;;;;;;5081158;28;20036;-86
2022/07/20 05:48:55;;;;;;;5.13;3.70;;;;;;;;;;5080361;28;20036;-89
2022/07/20 05:51:21;;;;;;;7.93;4.47;;;;;;;;;;5079793;28;20523;-90
2022/07/20 05:53:47;;;;;;;6.75;4.18;;;;;;;;;;5079216;28;20048;-91
2022/07/20 05:56:13;;;;;;;7.47;4.18;;;;;;;;;;5061903;28;20039;-91
2022/07/20 05:58:39;;;;;;;5.93;4.82;;;;;;;;;;5080125;28;20048;-92
2022/07/20 06:01:05;;;;;;;5.78;4.00;;;;;;;;;;5074918;28;20060;-90
2022/07/20 06:03:31;;;;;;;9.98;4.57;;;;;;;;;;5079687;28;20059;-90
2022/07/20 06:05:57;;;;;;;8.13;3.65;;;;;;;;;;5083531;28;20102;-88
2022/07/20 06:08:24;;;;;;;5.43;4.40;;;23.20;99.90;;;;;;5059790;28;20439;-82
2022/07/20 06:10:50;;;;;;;7.30;3.90;;;;;;;;;;5064374;28;20090;-82
2022/07/20 06:13:16;;;;;;;11.27;4.32;;;;;;;;;;5082846;28;20044;-83
2022/07/20 06:15:41;;;;;;;13.82;4.40;;;23.40;99.90;;;;;;5061900;28;20043;-82
2022/07/20 06:18:07;;;;;;;7.88;4.55;;;23.60;99.90;;;;;;5066986;28;20105;-81
2022/07/20 06:20:35;;;;;;;7.90;4.63;;;23.90;99.90;;;;;;5064260;28;20558;-80
2022/07/20 06:23:00;;;;;;;10.05;4.20;;;23.80;99.90;;;;;;5078497;28;20059;-80
2022/07/20 06:25:27;;;;;;;7.13;4.35;;;;;;;;;;5072207;28;20123;-81
2022/07/20 06:27:53;;;;;;;6.53;4.35;;;;;;;;;;5090691;28;20055;-81
2022/07/20 06:30:19;;;;;;;12.35;4.60;;;24.40;99.90;;;;;;5066203;28;20036;-80
2022/07/20 06:32:45;;;;;;;11.27;4.53;;;;;;;;;;5070782;28;20036;-81
2022/07/20 06:35:10;;;;;;;8.43;4.28;;;24.20;99.90;;;;;;5060713;28;20127;-81
2022/07/20 06:37:38;;;;;;;6.80;4.30;;;24.50;99.90;;;;;;5070719;28;20131;-81
2022/07/20 06:40:04;;;;;;;13.80;5.45;;;24.20;99.90;;;;;;5087358;28;20056;-82
2022/07/20 06:42:31;;;;;;;6.30;4.78;;;24.60;99.90;;;;;;5059445;28;20045;-81
2022/07/20 06:44:56;;;;;;;7.97;4.18;;;24.50;99.90;;;;;;5062405;28;20059;-86
2022/07/20 06:47:22;;;;;;;7.72;4.95;;;24.40;99.90;;;;;;5078795;28;20074;-85
2022/07/20 06:49:48;;;;;;;9.70;4.85;;;24.70;99.90;;;;;;5081523;28;20044;-86
2022/07/20 06:52:13;;;;;;;5.60;4.35;;;24.80;99.90;;;;;;5064792;28;20044;-85
2022/07/20 06:54:39;;;;;;;7.35;5.28;;;;;;;;;;5081059;28;20071;-85
2022/07/20 06:57:05;;;;;;;7.50;5.45;;;24.80;99.90;;;;;;5086551;28;20503;-86
2022/07/20 06:59:31;;;;;;;6.18;5.15;;;24.90;99.90;;;;;;5056309;28;20158;-86
2022/07/20 07:01:56;;;;;;;9.65;5.93;;;25.20;99.90;;;;;;5081429;28;20128;-88
2022/07/20 07:04:22;;;;;;;13.45;5.78;;;25.00;99.90;;;;;;5062477;28;20128;-83
2022/07/20 07:06:48;;;;;;;11.07;4.75;;;25.00;99.90;;;;;;5077584;28;20032;-88
2022/07/20 07:09:14;;;;;;;11.18;6.30;;;25.00;99.90;;;;;;5078790;28;20045;-87
2022/07/20 07:11:40;;;;;;;14.65;5.70;;;25.20;99.90;;;;;;5080207;28;20036;-88
2022/07/20 07:14:06;;;;;;;7.75;6.72;;;25.30;99.90;;;;;;5081636;28;20043;-87
2022/07/20 07:16:31;;;;;;;15.30;5.63;;;25.50;99.90;;;;;;5062921;28;20047;-90
2022/07/20 07:18:57;;;;;;;10.25;6.30;;;25.40;99.90;;;;;;5079530;28;20040;-81
2022/07/20 07:21:24;;;;;;;18.00;7.18;;;25.40;99.90;;;;;;5080127;28;20067;-82
2022/07/20 07:23:49;;;;;;;10.80;6.78;;;25.50;99.90;;;;;;5067667;28;20485;-83
2022/07/20 07:26:17;;;;;;;13.43;7.35;;;25.50;99.90;;;;;;5069200;28;20040;-81
2022/07/20 07:28:43;;;;;;;10.13;6.18;;;25.60;99.90;;;;;;5082480;28;20071;-82
2022/07/20 07:31:09;;;;;;;14.93;7.07;;;25.70;99.90;;;;;;5064638;28;20081;-81
2022/07/20 07:33:35;;;;;;;9.57;6.68;;;25.90;99.90;;;;;;5081709;28;20049;-81
2022/07/20 07:36:01;;;;;;;10.57;7.45;;;25.60;99.90;;;;;;5065176;28;20618;-82
2022/07/20 07:38:26;;;;;;;9.98;7.25;;;25.70;99.90;;;;;;5064202;28;20056;-81
2022/07/20 07:40:53;;;;;;;13.95;7.05;;;;;;;;;;5064107;28;20056;-82
2022/07/20 07:43:18;;;;;;;10.77;7.18;;;25.90;99.90;;;;;;5089037;28;20117;-81
2022/07/20 07:45:44;;;;;;;14.38;7.88;;;25.60;99.90;;;;;;5062875;28;20488;-82
2022/07/20 07:48:10;;;;;;;19.58;7.93;;;26.00;99.90;;;;;;5102582;28;20060;-82
2022/07/20 07:50:40;;;;;;;11.30;8.32;;;26.10;99.90;;;;;;5067655;28;20048;-85
2022/07/20 07:53:07;;;;;;;10.07;8.63;;;26.20;99.90;;;;;;5067735;28;20135;-87
2022/07/20 07:55:38;;;;;;;19.77;9.93;;;26.40;99.90;;;;;;5080719;28;20102;-84
2022/07/20 07:58:09;;;;;;;14.77;10.15;;;27.90;99.90;;;;;;5066952;28;20127;-86
2022/07/20 08:00:37;;;;;;;15.20;10.77;;;26.10;99.90;;;;;;5086291;28;20504;-85
2022/07/20 08:03:06;;;;;;;17.92;10.25;;;26.60;99.90;;;;;;5104666;28;20097;-86
2022/07/20 08:05:34;;;;;;;19.17;11.65;;;26.40;99.90;;;;;;5077714;28;20055;-86
2022/07/20 08:08:12;;;;;;;16.27;12.10;;;28.80;99.90;;;;;;5083319;28;20381;-86
2022/07/20 08:10:42;;;;;;;20.80;12.07;;;26.20;99.90;;;;;;5108735;28;20043;-88
2022/07/20 08:13:14;;;;;;;21.23;13.50;;;26.70;99.90;;;;;;5105606;28;20051;-87
2022/07/20 08:15:42;;;;;;;19.33;12.95;;;26.80;99.90;;;;;;5102585;28;20119;-88
2022/07/20 08:18:08;;;;;;;24.08;12.98;;;26.90;99.90;;;;;;5081751;28;20047;-84
2022/07/20 08:20:37;;;;;;;16.58;11.95;;;27.20;99.90;;;;;;5082628;28;20123;-86
2022/07/20 08:23:03;;;;;;;16.38;11.80;;;27.20;99.90;;;;;;5063833;28;20044;-81
2022/07/20 08:25:29;;;;;;;19.98;13.43;;;27.00;99.90;;;;;;5078924;28;20041;-81
2022/07/20 08:27:55;;;;;;;19.85;13.40;;;27.10;99.90;;;;;;5078085;28;20178;-84
2022/07/20 08:30:21;;;;;;;22.52;15.00;;;27.00;99.90;;;;;;5089222;28;20521;-84
2022/07/20 08:32:47;;;;;;;25.05;15.95;;;27.20;99.90;;;;;;5081425;28;20390;-85
2022/07/20 08:35:12;;;;;;;25.40;17.73;;;27.00;99.90;;;;;;5082613;28;20036;-81
2022/07/20 08:37:38;;;;;;;25.55;16.27;;;27.10;99.90;;;;;;5081189;28;20051;-82
2022/07/20 08:40:05;;;;;;;23.67;16.50;;;28.70;99.90;;;;;;5080013;28;20454;-83
2022/07/20 08:42:31;;;;;;;30.67;18.77;;;27.10;99.90;;;;;;5081623;28;20048;-82
2022/07/20 08:44:57;;;;;;;24.35;17.35;;;27.30;99.90;;;;;;5080280;28;20062;-82
2022/07/20 08:47:28;;;;;;;29.73;18.10;;;27.00;99.90;;;;;;5084904;28;20036;-85
2022/07/20 08:49:53;;;;;;;30.48;18.20;;;27.30;99.90;;;;;;5056069;28;20036;-83
2022/07/20 08:52:19;;;;;;;29.88;17.35;;;27.50;99.90;;;;;;5082384;28;20044;-84
2022/07/20 08:54:45;;;;;;;23.45;18.48;;;27.30;99.90;;;;;;5086544;28;20068;-81
2022/07/20 08:57:15;;;;;;;29.35;18.90;;;27.30;99.90;;;;;;5088370;28;20044;-82
2022/07/20 08:59:41;;;;;;;25.10;18.55;;;27.70;99.90;;;;;;5079886;28;20477;-80
2022/07/20 09:02:08;;;;;;;27.45;18.40;;;27.50;99.90;;;;;;5090021;28;20396;-83
2022/07/20 09:04:59;;;;;;;23.95;18.13;;;27.40;99.90;;;;;;5066406;28;20036;-81
2022/07/20 09:07:45;;;;;;;27.58;18.52;;;27.70;99.90;;;;;;5075764;28;20075;-83
2022/07/20 09:10:17;;;;;;;34.15;18.77;;;27.50;99.90;;;;;;5082474;28;20036;-84
2022/07/20 09:12:57;;;;;;;29.77;18.63;;;27.60;99.90;;;;;;5088409;28;20091;-82
2022/07/20 09:15:30;;;;;;;31.00;20.35;;;27.80;99.90;;;;;;5082529;28;20051;-83
2022/07/20 09:18:03;;;;;;;;;;;27.60;99.90;;;;;;5079567;28;20036;-86
2022/07/20 09:20:31;;;;;;;29.13;19.88;;;27.80;99.90;;;;;;5089395;28;19971;-85
2022/07/20 09:23:05;;;;;;;29.40;21.13;;;27.80;99.90;;;;;;5084914;28;20040;-86
2022/07/20 09:25:32;;;;;;;37.67;21.80;;;27.90;99.90;;;;;;5085345;28;20056;-83
2022/07/20 09:27:59;;;;;;;30.38;21.13;;;28.20;99.90;;;;;;5085363;28;20036;-81
2022/07/20 09:30:25;;;;;;;36.08;21.60;;;28.00;99.90;;;;;;5094159;28;20073;-85
2022/07/20 09:33:02;;;;;;;30.80;21.35;;;27.80;99.90;;;;;;5067981;28;20064;-85
2022/07/20 09:35:33;;;;;;;32.13;21.27;;;28.00;99.90;;;;;;5080992;28;20040;-84
2022/07/20 09:38:04;;;;;;;27.42;19.13;;;28.30;99.90;;;;;;5084824;28;20074;-85
2022/07/20 09:40:41;;;;;;;35.65;21.15;;;27.70;99.90;;;;;;5084949;28;20052;-83
2022/07/20 09:43:08;;;;;;;32.92;19.73;;;28.20;99.90;;;;;;5088088;28;20036;-83
2022/07/20 09:45:35;;;;;;;26.63;20.75;;;27.90;99.90;;;;;;5088856;28;20563;-82
2022/07/20 09:48:07;;;;;;;31.48;20.85;;;28.00;99.90;;;;;;5082719;28;20075;-81
2022/07/20 09:50:41;;;;;;;31.27;21.33;;;27.80;99.90;;;;;;5083244;28;20045;-83
2022/07/20 09:53:09;;;;;;;33.80;20.65;;;27.30;99.90;;;;;;5084616;28;20548;-82
2022/07/20 09:55:36;;;;;;;31.77;20.90;;;27.90;99.90;;;;;;5076325;28;20044;-83
2022/07/20 09:58:03;;;;;;;22.67;17.92;;;28.10;99.90;;;;;;5086423;28;20396;-83
2022/07/20 10:00:30;;;;;;;28.23;16.83;;;27.90;99.90;;;;;;5057524;28;20107;-86
2022/07/20 10:02:59;;;;;;;23.20;15.98;;;28.10;99.90;;;;;;5080031;28;20040;-81
2022/07/20 10:05:30;;;;;;;23.52;15.73;;;28.20;99.90;;;;;;5083905;28;20047;-83
2022/07/20 10:07:59;;;;;;;23.05;15.40;;;28.00;99.90;;;;;;5080993;28;20504;-87
2022/07/20 10:10:25;;;;;;;18.45;14.90;;;28.00;99.90;;;;;;5078405;28;20132;-85
2022/07/20 10:12:51;;;;;;;16.60;13.80;;;28.10;99.90;;;;;;5079967;28;20111;-86
2022/07/20 10:15:23;;;;;;;24.60;14.70;;;28.10;99.90;;;;;;5071868;28;20484;-82
2022/07/20 10:17:49;;;;;;;22.77;14.77;;;28.10;99.90;;;;;;5074557;28;20044;-88
2022/07/20 10:20:35;;;;;;;20.13;14.05;;;28.60;99.90;;;;;;5064076;28;20098;-86
2022/07/20 10:23:16;;;;;;;23.10;13.98;;;27.50;99.90;;;;;;5078548;28;20481;-85
2022/07/20 10:25:46;;;;;;;23.52;14.45;;;28.20;99.90;;;;;;5079614;28;20116;-84
2022/07/20 10:28:33;;;;;;;19.90;13.23;;;28.20;99.90;;;;;;5082942;28;20040;-82
2022/07/20 10:31:10;;;;;;;21.48;13.07;;;28.20;99.90;;;;;;5087894;28;20040;-85
2022/07/20 10:33:39;;;;;;;17.58;12.25;;;28.40;99.90;;;;;;5088025;28;20040;-83
2022/07/20 10:39:44;;;;;;;18.17;10.75;;;26.30;99.90;;;;;;5082193;28;20048;-83
2022/07/20 10:42:30;;;;;;;14.27;10.10;;;28.40;99.90;;;;;;5081409;28;20055;-82
2022/07/20 10:45:27;;;;;;;15.23;11.60;;;28.30;99.90;;;;;;5067136;28;20111;-82
2022/07/20 10:48:00;;;;;;;19.90;11.07;;;29.00;99.90;;;;;;5089430;28;20036;-81
2022/07/20 10:50:31;;;;;;;16.95;11.25;;;28.30;99.90;;;;;;5056423;28;20525;-82
2022/07/20 10:53:10;;;;;;;20.88;11.10;;;28.30;99.90;;;;;;5077728;28;20056;-80
2022/07/20 10:55:36;;;;;;;15.80;11.18;;;28.60;99.90;;;;;;5077041;28;20135;-81
2022/07/20 10:58:07;;;;;;;18.23;10.52;;;28.50;99.90;;;;;;5056699;28;20171;-80
2022/07/20 11:00:46;;;;;;;13.88;10.52;;;28.80;99.90;;;;;;5065833;28;20060;-79
2022/07/20 11:03:13;;;;;;;15.25;11.38;;;28.60;99.90;;;;;;5066091;28;20063;-80
2022/07/20 11:05:40;;;;;;;19.85;11.18;;;28.70;99.90;;;;;;5064941;28;20073;-81
2022/07/20 11:08:10;;;;;;;20.17;11.43;;;28.80;99.90;;;;;;5067175;28;20044;-80
2022/07/20 11:10:37;;;;;;;17.67;9.95;;;28.50;99.90;;;;;;5076372;28;20048;-81
2022/07/20 11:13:04;;;;;;;18.83;11.63;;;29.00;99.90;;;;;;5075016;28;20055;-83
2022/07/20 11:15:59;;;;;;;22.48;10.95;;;29.00;99.90;;;;;;5062608;28;20141;-81
2022/07/20 11:18:29;;;;;;;20.48;11.15;;;28.90;99.90;;;;;;5070838;28;20052;-80
2022/07/20 11:21:09;;;;;;;19.35;11.50;;;28.90;99.90;;;;;;5082285;28;20087;-82
2022/07/20 11:23:43;;;;;;;16.02;12.02;;;29.00;99.90;;;;;;5082806;28;20045;-81
2022/07/20 11:26:10;;;;;;;15.02;11.23;;;29.10;99.90;;;;;;5078250;28;20080;-80
2022/07/20 11:28:42;;;;;;;18.75;11.88;;;29.10;99.90;;;;;;5082302;28;20032;-80
2022/07/20 11:31:08;;;;;;;25.90;12.90;;;29.10;99.90;;;;;;5082422;28;20340;-81
2022/07/20 11:33:35;;;;;;;12.02;10.25;;;29.00;99.90;;;;;;5082504;28;20135;-81
2022/07/20 11:36:13;;;;;;;17.85;10.75;;;29.10;99.90;;;;;;5068232;28;20040;-80
2022/07/20 11:38:41;;;;;;;17.00;10.68;;;29.00;99.90;;;;;;5077681;28;20056;-80
2022/07/20 11:41:10;;;;;;;14.10;9.85;;;29.30;99.90;;;;;;5083732;28;20036;-80
2022/07/20 11:43:36;;;;;;;14.15;8.77;;;29.40;99.90;;;;;;5083043;28;20044;-80
2022/07/20 11:46:21;;;;;;;13.90;9.70;;;29.20;99.90;;;;;;5086334;28;20032;-81
2022/07/20 11:49:02;;;;;;;14.27;9.85;;;29.30;99.90;;;;;;5083054;28;20044;-84
2022/07/20 11:51:30;;;;;;;11.02;8.13;;;29.20;99.90;;;;;;5068996;28;20051;-81
2022/07/20 11:53:56;;;;;;;14.25;9.00;;;29.60;99.90;;;;;;5082791;28;20056;-82
2022/07/20 11:56:31;;;;;;;9.38;7.25;;;29.50;99.90;;;;;;5063260;28;20127;-81
2022/07/20 11:58:59;;;;;;;15.18;8.23;;;29.30;99.90;;;;;;5073075;28;20127;-81
2022/07/20 12:01:29;;;;;;;13.07;8.45;;;29.50;99.90;;;;;;5070364;28;20090;-84
2022/07/20 12:03:58;;;;;;;13.65;7.93;;;29.50;99.90;;;;;;5068423;28;20129;-81
2022/07/20 12:06:36;;;;;;;15.27;8.38;;;29.50;99.90;;;;;;5056709;28;20037;-80
2022/07/20 12:09:11;;;;;;;15.27;8.75;;;30.20;99.90;;;;;;5081146;28;20044;-81
2022/07/20 12:11:59;;;;;;;11.35;8.18;;;29.50;99.90;;;;;;5084511;28;20099;-78
2022/07/20 12:14:40;;;;;;;11.63;7.63;;;28.30;99.90;;;;;;5058845;28;20048;-79
2022/07/20 12:17:19;;;;;;;10.57;8.07;;;29.80;99.90;;;;;;5067185;28;20040;-81
2022/07/20 12:19:48;;;;;;;9.65;8.65;;;29.70;99.90;;;;;;5098460;28;20503;-79
2022/07/20 12:22:26;;;;;;;534.33;65.88;;;29.80;99.90;;;;;;5089662;28;20036;-82
2022/07/20 12:24:53;;;;;;;20.38;10.52;;;29.80;99.90;;;;;;5080929;28;20047;-81
2022/07/20 12:27:20;;;;;;;15.75;9.45;;;30.20;99.90;;;;;;5080120;28;20386;-82
2022/07/20 12:29:45;;;;;;;14.80;9.85;;;29.60;99.90;;;;;;5085514;28;20035;-82
2022/07/20 12:32:15;;;;;;;14.63;10.13;;;29.80;99.90;;;;;;5086157;28;20040;-82
2022/07/20 12:34:53;;;;;;;11.25;9.68;;;29.40;99.90;;;;;;5082362;28;20036;-82
2022/07/20 12:37:20;;;;;;;23.75;12.95;;;29.50;99.90;;;;;;5080498;28;20052;-81
2022/07/20 12:39:49;;;;;;;16.88;11.27;;;29.30;99.90;;;;;;5085189;28;20063;-81
2022/07/20 12:42:23;;;;;;;15.27;10.82;;;29.60;99.90;;;;;;5087240;28;20040;-81
2022/07/20 12:44:58;;;;;;;13.07;10.48;;;29.70;99.90;;;;;;5083823;28;20040;-83
2022/07/20 12:47:24;;;;;;;17.70;11.07;;;29.60;99.90;;;;;;5067300;28;20135;-81
2022/07/20 12:49:49;;;;;;;14.57;11.15;;;29.80;99.90;;;;;;5081620;28;20072;-81
2022/07/20 12:52:15;;;;;;;15.15;11.18;;;29.80;99.90;;;;;;5099119;28;20072;-81
2022/07/20 12:54:41;;;;;;;15.73;10.15;;;29.70;99.90;;;;;;5083498;28;20048;-83
2022/07/20 12:57:06;;;;;;;13.48;11.23;;;29.90;99.90;;;;;;5069131;28;20032;-81
2022/07/20 12:59:32;;;;;;;13.40;9.90;;;29.80;99.90;;;;;;5085138;28;20044;-81
2022/07/20 13:01:58;;;;;;;15.82;10.85;;;29.50;99.90;;;;;;5093727;28;20051;-82
2022/07/20 13:04:25;;;;;;;11.48;9.32;;;29.90;99.90;;;;;;5087309;28;20048;-81
2022/07/20 13:06:52;;;;;;;13.07;9.93;;;30.20;99.90;;;;;;5083814;28;20074;-82
2022/07/20 13:09:20;;;;;;;10.80;8.35;;;30.30;99.90;;;;;;5062312;28;20049;-81
2022/07/20 13:11:46;;;;;;;11.60;8.70;;;29.90;99.90;;;;;;5085784;28;20091;-82
2022/07/20 13:14:22;;;;;;;10.45;8.57;;;30.10;99.90;;;;;;5086408;28;20044;-82
2022/07/20 13:16:50;;;;;;;14.13;8.43;;;30.10;99.90;;;;;;5074259;28;20702;-84
2022/07/20 13:19:16;;;;;;;16.48;9.52;;;30.10;99.90;;;;;;5080906;28;20405;-84
2022/07/20 13:21:43;;;;;;;10.77;7.95;;;30.30;99.90;;;;;;5087635;28;20032;-81
2022/07/20 13:24:10;;;;;;;12.80;7.75;;;30.30;99.90;;;;;;5095193;28;20081;-82
2022/07/20 13:26:36;;;;;;;11.05;7.60;;;30.40;99.90;;;;;;5073362;28;20059;-81